sensor_id;sensor_type;location;lat;lon;timestamp;pressure;altitude;pressure_sealevel;temperature
75773;BMP280;64381;0.000;0.000;2024-03-07T00:01:20;95698.91;;;19.43
75773;BMP280;64381;0.000;0.000;2024-03-07T00:03:45;95697.41;;;19.42
75773;BMP280;64381;0.000;0.000;2024-03-07T00:06:10;95696.88;;;19.43
75773;BMP280;64381;0.000;0.000;2024-03-07T00:08:36;95693.22;;;19.41
75773;BMP280;64381;0.000;0.000;2024-03-07T00:11:01;95691.88;;;19.42
75773;BMP280;64381;0.000;0.000;2024-03-07T00:13:26;95695.38;;;19.42
75773;BMP280;64381;0.000;0.000;2024-03-07T00:15:51;95691.34;;;19.43
75773;BMP280;64381;0.000;0.000;2024-03-07T00:18:16;95684.91;;;19.41
75773;BMP280;64381;0.000;0.000;2024-03-07T00:20:42;95688.97;;;19.40
75773;BMP280;64381;0.000;0.000;2024-03-07T00:23:07;95694.66;;;19.42
75773;BMP280;64381;0.000;0.000;2024-03-07T00:25:32;95687.69;;;19.41
75773;BMP280;64381;0.000;0.000;2024-03-07T00:27:57;95680.66;;;19.40
75773;BMP280;64381;0.000;0.000;2024-03-07T00:30:22;95689.13;;;19.42
75773;BMP280;64381;0.000;0.000;2024-03-07T00:32:48;95684.91;;;19.41
75773;BMP280;64381;0.000;0.000;2024-03-07T00:35:13;95681.56;;;19.42
75773;BMP280;64381;0.000;0.000;2024-03-07T00:37:38;95683.56;;;19.42
75773;BMP280;64381;0.000;0.000;2024-03-07T00:40:04;95683.78;;;19.44
75773;BMP280;64381;0.000;0.000;2024-03-07T00:42:29;95697.78;;;19.46
75773;BMP280;64381;0.000;0.000;2024-03-07T00:44:54;95693.00;;;19.46
75773;BMP280;64381;0.000;0.000;2024-03-07T00:47:20;95687.47;;;19.46
75773;BMP280;64381;0.000;0.000;2024-03-07T00:49:45;95687.47;;;19.46
75773;BMP280;64381;0.000;0.000;2024-03-07T00:52:11;95693.94;;;19.49
75773;BMP280;64381;0.000;0.000;2024-03-07T00:54:36;95690.44;;;19.48
75773;BMP280;64381;0.000;0.000;2024-03-07T00:57:01;95684.34;;;19.50
75773;BMP280;64381;0.000;0.000;2024-03-07T00:59:26;95676.06;;;19.50
75773;BMP280;64381;0.000;0.000;2024-03-07T01:01:51;95671.81;;;19.49
75773;BMP280;64381;0.000;0.000;2024-03-07T01:04:17;95671.44;;;19.52
75773;BMP280;64381;0.000;0.000;2024-03-07T01:06:42;95670.69;;;19.52
75773;BMP280;64381;0.000;0.000;2024-03-07T01:09:08;95669.97;;;19.51
75773;BMP280;64381;0.000;0.000;2024-03-07T01:11:33;95661.66;;;19.51
75773;BMP280;64381;0.000;0.000;2024-03-07T01:13:58;95661.66;;;19.51
75773;BMP280;64381;0.000;0.000;2024-03-07T01:16:23;95659.63;;;19.52
75773;BMP280;64381;0.000;0.000;2024-03-07T01:18:48;95659.44;;;19.50
75773;BMP280;64381;0.000;0.000;2024-03-07T01:21:14;95656.69;;;19.50
75773;BMP280;64381;0.000;0.000;2024-03-07T01:23:39;95651.69;;;19.48
75773;BMP280;64381;0.000;0.000;2024-03-07T01:26:04;95655.75;;;19.47
75773;BMP280;64381;0.000;0.000;2024-03-07T01:28:29;95653.72;;;19.48
75773;BMP280;64381;0.000;0.000;2024-03-07T01:30:54;95656.31;;;19.46
75773;BMP280;64381;0.000;0.000;2024-03-07T01:33:20;95646.53;;;19.45
75773;BMP280;64381;0.000;0.000;2024-03-07T01:35:45;95647.81;;;19.44
75773;BMP280;64381;0.000;0.000;2024-03-07T01:38:10;95648.56;;;19.44
75773;BMP280;64381;0.000;0.000;2024-03-07T01:40:36;95649.31;;;19.45
75773;BMP280;64381;0.000;0.000;2024-03-07T01:43:02;95642.28;;;19.44
75773;BMP280;64381;0.000;0.000;2024-03-07T01:45:27;95643.56;;;19.43
75773;BMP280;64381;0.000;0.000;2024-03-07T01:47:53;95634.53;;;19.42
75773;BMP280;64381;0.000;0.000;2024-03-07T01:50:18;95637.28;;;19.42
75773;BMP280;64381;0.000;0.000;2024-03-07T01:52:44;95642.09;;;19.42
75773;BMP280;64381;0.000;0.000;2024-03-07T01:55:11;95628.25;;;19.42
75773;BMP280;64381;0.000;0.000;2024-03-07T01:57:36;95628.84;;;19.40
75773;BMP280;64381;0.000;0.000;2024-03-07T02:00:02;95632.34;;;19.41
75773;BMP280;64381;0.000;0.000;2024-03-07T02:02:27;95621.28;;;19.41
75773;BMP280;64381;0.000;0.000;2024-03-07T02:04:53;95617.19;;;19.42
75773;BMP280;64381;0.000;0.000;2024-03-07T02:07:18;95611.66;;;19.42
75773;BMP280;64381;0.000;0.000;2024-03-07T02:09:43;95618.53;;;19.41
75773;BMP280;64381;0.000;0.000;2024-03-07T02:12:08;95608.53;;;19.38
75773;BMP280;64381;0.000;0.000;2024-03-07T02:14:33;95612.63;;;19.37
75773;BMP280;64381;0.000;0.000;2024-03-07T02:16:59;95614.63;;;19.36
75773;BMP280;64381;0.000;0.000;2024-03-07T02:19:24;95608.38;;;19.36
75773;BMP280;64381;0.000;0.000;2024-03-07T02:21:49;95601.91;;;19.33
75773;BMP280;64381;0.000;0.000;2024-03-07T02:24:15;95599.31;;;19.35
75773;BMP280;64381;0.000;0.000;2024-03-07T02:26:40;95593.78;;;19.35
75773;BMP280;64381;0.000;0.000;2024-03-07T02:29:05;95599.88;;;19.34
75773;BMP280;64381;0.000;0.000;2024-03-07T02:31:30;95597.69;;;19.32
75773;BMP280;64381;0.000;0.000;2024-03-07T02:33:56;95588.09;;;19.33
75773;BMP280;64381;0.000;0.000;2024-03-07T02:36:21;95588.25;;;19.35
75773;BMP280;64381;0.000;0.000;2024-03-07T02:38:46;95591.03;;;19.35
75773;BMP280;64381;0.000;0.000;2024-03-07T02:41:11;95590.84;;;19.33
75773;BMP280;64381;0.000;0.000;2024-03-07T02:43:36;95589.00;;;19.36
75773;BMP280;64381;0.000;0.000;2024-03-07T02:46:02;95586.25;;;19.36
75773;BMP280;64381;0.000;0.000;2024-03-07T02:48:27;95589.00;;;19.36
75773;BMP280;64381;0.000;0.000;2024-03-07T02:50:52;95591.03;;;19.35
75773;BMP280;64381;0.000;0.000;2024-03-07T02:53:17;95582.00;;;19.35
75773;BMP280;64381;0.000;0.000;2024-03-07T02:55:42;95587.72;;;19.37
75773;BMP280;64381;0.000;0.000;2024-03-07T02:58:08;95586.06;;;19.34
75773;BMP280;64381;0.000;0.000;2024-03-07T03:00:33;95589.00;;;19.36
75773;BMP280;64381;0.000;0.000;2024-03-07T03:02:58;95583.84;;;19.32
75773;BMP280;64381;0.000;0.000;2024-03-07T03:05:23;95583.28;;;19.34
75773;BMP280;64381;0.000;0.000;2024-03-07T03:07:49;95580.34;;;19.32
75773;BMP280;64381;0.000;0.000;2024-03-07T03:10:14;95586.63;;;19.32
75773;BMP280;64381;0.000;0.000;2024-03-07T03:12:39;95570.38;;;19.29
75773;BMP280;64381;0.000;0.000;2024-03-07T03:15:06;95576.63;;;19.29
75773;BMP280;64381;0.000;0.000;2024-03-07T03:17:32;95579.25;;;19.27
75773;BMP280;64381;0.000;0.000;2024-03-07T03:19:58;95584.78;;;19.27
75773;BMP280;64381;0.000;0.000;2024-03-07T03:22:23;95578.50;;;19.27
75773;BMP280;64381;0.000;0.000;2024-03-07T03:24:48;95581.81;;;19.25
75773;BMP280;64381;0.000;0.000;2024-03-07T03:27:13;95576.09;;;19.23
75773;BMP280;64381;0.000;0.000;2024-03-07T03:29:38;95581.63;;;19.23
75773;BMP280;64381;0.000;0.000;2024-03-07T03:32:04;95582.94;;;19.22
75773;BMP280;64381;0.000;0.000;2024-03-07T03:34:29;95580.88;;;19.23
75773;BMP280;64381;0.000;0.000;2024-03-07T03:36:54;95582.75;;;19.20
75773;BMP280;64381;0.000;0.000;2024-03-07T03:39:19;95577.41;;;19.22
75773;BMP280;64381;0.000;0.000;2024-03-07T03:41:44;95579.97;;;19.20
75773;BMP280;64381;0.000;0.000;2024-03-07T03:44:10;95582.56;;;19.18
75773;BMP280;64381;0.000;0.000;2024-03-07T03:46:35;95583.31;;;19.19
75773;BMP280;64381;0.000;0.000;2024-03-07T03:49:00;95580.34;;;19.17
75773;BMP280;64381;0.000;0.000;2024-03-07T03:51:25;95575.38;;;19.15
75773;BMP280;64381;0.000;0.000;2024-03-07T03:53:50;95574.06;;;19.16
75773;BMP280;64381;0.000;0.000;2024-03-07T03:56:16;95579.44;;;19.14
75773;BMP280;64381;0.000;0.000;2024-03-07T03:58:41;95569.84;;;19.15
75773;BMP280;64381;0.000;0.000;2024-03-07T04:01:06;95571.88;;;19.15
75773;BMP280;64381;0.000;0.000;2024-03-07T04:03:31;95574.66;;;19.15
75773;BMP280;64381;0.000;0.000;2024-03-07T04:05:56;95569.66;;;19.13
75773;BMP280;64381;0.000;0.000;2024-03-07T04:08:22;95573.16;;;19.14
75773;BMP280;64381;0.000;0.000;2024-03-07T04:10:47;95570.41;;;19.14
75773;BMP280;64381;0.000;0.000;2024-03-07T04:13:12;95571.16;;;19.14
75773;BMP280;64381;0.000;0.000;2024-03-07T04:15:37;95570.56;;;19.16
75773;BMP280;64381;0.000;0.000;2024-03-07T04:18:03;95575.53;;;19.17
75773;BMP280;64381;0.000;0.000;2024-03-07T04:20:28;95570.75;;;19.18
75773;BMP280;64381;0.000;0.000;2024-03-07T04:22:53;95564.47;;;19.17
75773;BMP280;64381;0.000;0.000;2024-03-07T04:25:18;95568.72;;;19.18
75773;BMP280;64381;0.000;0.000;2024-03-07T04:27:44;95575.53;;;19.17
75773;BMP280;64381;0.000;0.000;2024-03-07T04:30:09;95577.78;;;19.19
75773;BMP280;64381;0.000;0.000;2024-03-07T04:32:36;95575.72;;;19.19
75773;BMP280;64381;0.000;0.000;2024-03-07T04:35:02;95572.25;;;19.19
75773;BMP280;64381;0.000;0.000;2024-03-07T04:37:27;95567.44;;;19.19
75773;BMP280;64381;0.000;0.000;2024-03-07T04:39:53;95566.88;;;19.21
75773;BMP280;64381;0.000;0.000;2024-03-07T04:42:18;95561.91;;;19.19
75773;BMP280;64381;0.000;0.000;2024-03-07T04:44:43;95561.19;;;19.19
75773;BMP280;64381;0.000;0.000;2024-03-07T04:47:08;95566.50;;;19.24
75773;BMP280;64381;0.000;0.000;2024-03-07T04:49:34;95560.97;;;19.24
75773;BMP280;64381;0.000;0.000;2024-03-07T04:52:03;95563.75;;;19.24
75773;BMP280;64381;0.000;0.000;2024-03-07T04:54:29;95562.47;;;19.25
75773;BMP280;64381;0.000;0.000;2024-03-07T04:56:55;95558.06;;;19.22
75773;BMP280;64381;0.000;0.000;2024-03-07T04:59:21;95565.75;;;19.24
75773;BMP280;64381;0.000;0.000;2024-03-07T05:01:47;95560.81;;;19.22
75773;BMP280;64381;0.000;0.000;2024-03-07T05:04:14;95564.13;;;19.21
75773;BMP280;64381;0.000;0.000;2024-03-07T05:06:40;95565.41;;;19.20
75773;BMP280;64381;0.000;0.000;2024-03-07T05:09:07;95566.16;;;19.20
75773;BMP280;64381;0.000;0.000;2024-03-07T05:11:33;95565.22;;;19.18
75773;BMP280;64381;0.000;0.000;2024-03-07T05:13:59;95563.94;;;19.19
75773;BMP280;64381;0.000;0.000;2024-03-07T05:16:25;95567.25;;;19.17
75773;BMP280;64381;0.000;0.000;2024-03-07T05:18:51;95572.78;;;19.17
75773;BMP280;64381;0.000;0.000;2024-03-07T05:21:16;95572.03;;;19.17
75773;BMP280;64381;0.000;0.000;2024-03-07T05:23:41;95580.19;;;19.15
75773;BMP280;64381;0.000;0.000;2024-03-07T05:26:07;95571.88;;;19.15
75773;BMP280;64381;0.000;0.000;2024-03-07T05:28:32;95573.16;;;19.14
75773;BMP280;64381;0.000;0.000;2024-03-07T05:30:57;95578.69;;;19.14
75773;BMP280;64381;0.000;0.000;2024-03-07T05:33:22;95579.44;;;19.14
75773;BMP280;64381;0.000;0.000;2024-03-07T05:35:47;95577.75;;;19.11
75773;BMP280;64381;0.000;0.000;2024-03-07T05:38:13;95579.22;;;19.12
75773;BMP280;64381;0.000;0.000;2024-03-07T05:40:38;95582.00;;;19.12
75773;BMP280;64381;0.000;0.000;2024-03-07T05:43:03;95579.75;;;19.11
75773;BMP280;64381;0.000;0.000;2024-03-07T05:45:28;95577.00;;;19.11
75773;BMP280;64381;0.000;0.000;2024-03-07T05:47:53;95578.13;;;19.08
75773;BMP280;64381;0.000;0.000;2024-03-07T05:50:19;95576.84;;;19.09
75773;BMP280;64381;0.000;0.000;2024-03-07T05:52:44;95585.16;;;19.09
75773;BMP280;64381;0.000;0.000;2024-03-07T05:55:09;95583.13;;;19.09
75773;BMP280;64381;0.000;0.000;2024-03-07T05:57:34;95576.84;;;19.09
75773;BMP280;64381;0.000;0.000;2024-03-07T05:59:59;95584.94;;;19.06
75773;BMP280;64381;0.000;0.000;2024-03-07T06:02:25;95578.88;;;19.08
75773;BMP280;64381;0.000;0.000;2024-03-07T06:04:50;95586.59;;;19.10
75773;BMP280;64381;0.000;0.000;2024-03-07T06:07:15;95580.34;;;19.09
75773;BMP280;64381;0.000;0.000;2024-03-07T06:09:40;95587.53;;;19.12
75773;BMP280;64381;0.000;0.000;2024-03-07T06:12:06;95583.47;;;19.13
75773;BMP280;64381;0.000;0.000;2024-03-07T06:14:31;95583.66;;;19.15
75773;BMP280;64381;0.000;0.000;2024-03-07T06:16:56;95588.47;;;19.15
75773;BMP280;64381;0.000;0.000;2024-03-07T06:19:21;95587.34;;;19.18
75773;BMP280;64381;0.000;0.000;2024-03-07T06:21:46;95579.06;;;19.18
75773;BMP280;64381;0.000;0.000;2024-03-07T06:24:12;95579.22;;;19.20
75773;BMP280;64381;0.000;0.000;2024-03-07T06:26:38;95577.78;;;19.19
75773;BMP280;64381;0.000;0.000;2024-03-07T06:29:03;95584.75;;;19.20
75773;BMP280;64381;0.000;0.000;2024-03-07T06:31:29;95575.00;;;19.19
75773;BMP280;64381;0.000;0.000;2024-03-07T06:33:54;95583.31;;;19.19
75773;BMP280;64381;0.000;0.000;2024-03-07T06:36:19;95584.75;;;19.20
75773;BMP280;64381;0.000;0.000;2024-03-07T06:38:44;95580.72;;;19.21
75773;BMP280;64381;0.000;0.000;2024-03-07T06:41:10;95577.94;;;19.21
75773;BMP280;64381;0.000;0.000;2024-03-07T06:43:35;95575.94;;;19.21
75773;BMP280;64381;0.000;0.000;2024-03-07T06:46:00;95574.44;;;19.20
75773;BMP280;64381;0.000;0.000;2024-03-07T06:48:25;95576.47;;;19.20
75773;BMP280;64381;0.000;0.000;2024-03-07T06:50:51;95585.72;;;19.22
75773;BMP280;64381;0.000;0.000;2024-03-07T06:53:16;95577.94;;;19.21
75773;BMP280;64381;0.000;0.000;2024-03-07T06:55:41;95588.28;;;19.20
75773;BMP280;64381;0.000;0.000;2024-03-07T06:58:06;95591.78;;;19.21
75773;BMP280;64381;0.000;0.000;2024-03-07T07:00:32;95591.59;;;19.19
75773;BMP280;64381;0.000;0.000;2024-03-07T07:02:57;95583.84;;;19.17
75773;BMP280;64381;0.000;0.000;2024-03-07T07:05:22;95584.41;;;19.16
75773;BMP280;64381;0.000;0.000;2024-03-07T07:07:47;95591.38;;;19.17
75773;BMP280;64381;0.000;0.000;2024-03-07T07:10:13;95590.66;;;19.16
75773;BMP280;64381;0.000;0.000;2024-03-07T07:12:39;95587.72;;;19.14
75773;BMP280;64381;0.000;0.000;2024-03-07T07:15:04;95592.53;;;19.14
75773;BMP280;64381;0.000;0.000;2024-03-07T07:17:30;95591.78;;;19.13
75773;BMP280;64381;0.000;0.000;2024-03-07T07:19:57;95591.78;;;19.13
75773;BMP280;64381;0.000;0.000;2024-03-07T07:22:22;95585.50;;;19.13
75773;BMP280;64381;0.000;0.000;2024-03-07T07:24:47;95588.06;;;19.11
75773;BMP280;64381;0.000;0.000;2024-03-07T07:27:13;95589.94;;;19.08
75773;BMP280;64381;0.000;0.000;2024-03-07T07:29:38;95594.91;;;19.10
75773;BMP280;64381;0.000;0.000;2024-03-07T07:32:04;95587.91;;;19.09
75773;BMP280;64381;0.000;0.000;2024-03-07T07:34:29;95587.72;;;19.06
75773;BMP280;64381;0.000;0.000;2024-03-07T07:36:54;95586.97;;;19.06
75773;BMP280;64381;0.000;0.000;2024-03-07T07:39:19;95583.47;;;19.05
75773;BMP280;64381;0.000;0.000;2024-03-07T07:41:44;95587.72;;;19.06
75773;BMP280;64381;0.000;0.000;2024-03-07T07:44:10;95589.19;;;19.08
75773;BMP280;64381;0.000;0.000;2024-03-07T07:46:35;95583.66;;;19.08
75773;BMP280;64381;0.000;0.000;2024-03-07T07:49:01;95588.66;;;19.09
75773;BMP280;64381;0.000;0.000;2024-03-07T07:51:26;95580.34;;;19.09
75773;BMP280;64381;0.000;0.000;2024-03-07T07:53:52;95582.53;;;19.11
75773;BMP280;64381;0.000;0.000;2024-03-07T07:56:17;95578.50;;;19.12
75773;BMP280;64381;0.000;0.000;2024-03-07T07:58:42;95574.97;;;19.11
75773;BMP280;64381;0.000;0.000;2024-03-07T08:01:07;95573.34;;;19.16
75773;BMP280;64381;0.000;0.000;2024-03-07T08:03:32;95580.34;;;19.17
75773;BMP280;64381;0.000;0.000;2024-03-07T08:05:58;95578.47;;;19.19
75773;BMP280;64381;0.000;0.000;2024-03-07T08:08:23;95580.53;;;19.19
75773;BMP280;64381;0.000;0.000;2024-03-07T08:10:48;95573.16;;;19.21
75773;BMP280;64381;0.000;0.000;2024-03-07T08:13:13;95581.63;;;19.23
75773;BMP280;64381;0.000;0.000;2024-03-07T08:15:39;95578.31;;;19.25
75773;BMP280;64381;0.000;0.000;2024-03-07T08:18:04;95571.50;;;19.26
75773;BMP280;64381;0.000;0.000;2024-03-07T08:20:30;95581.44;;;19.29
75773;BMP280;64381;0.000;0.000;2024-03-07T08:22:55;95581.63;;;19.31
75773;BMP280;64381;0.000;0.000;2024-03-07T08:25:22;95577.59;;;19.32
75773;BMP280;64381;0.000;0.000;2024-03-07T08:27:49;95579.03;;;19.33
75773;BMP280;64381;0.000;0.000;2024-03-07T08:30:15;95569.47;;;19.34
75773;BMP280;64381;0.000;0.000;2024-03-07T08:32:43;95574.44;;;19.35
75773;BMP280;64381;0.000;0.000;2024-03-07T08:35:09;95577.38;;;19.37
75773;BMP280;64381;0.000;0.000;2024-03-07T08:37:38;95576.84;;;19.39
75773;BMP280;64381;0.000;0.000;2024-03-07T08:40:05;95571.31;;;19.39
75773;BMP280;64381;0.000;0.000;2024-03-07T08:42:31;95576.28;;;19.40
75773;BMP280;64381;0.000;0.000;2024-03-07T08:44:56;95575.56;;;19.40
75773;BMP280;64381;0.000;0.000;2024-03-07T08:47:22;95582.56;;;19.41
75773;BMP280;64381;0.000;0.000;2024-03-07T08:49:47;95574.06;;;19.39
75773;BMP280;64381;0.000;0.000;2024-03-07T08:52:12;95572.03;;;19.39
75773;BMP280;64381;0.000;0.000;2024-03-07T08:54:37;95571.31;;;19.39
75773;BMP280;64381;0.000;0.000;2024-03-07T08:57:03;95574.06;;;19.39
75773;BMP280;64381;0.000;0.000;2024-03-07T08:59:28;95565.03;;;19.38
75773;BMP280;64381;0.000;0.000;2024-03-07T09:01:53;95567.06;;;19.38
75773;BMP280;64381;0.000;0.000;2024-03-07T09:04:18;95564.84;;;19.36
75773;BMP280;64381;0.000;0.000;2024-03-07T09:06:44;95564.09;;;19.36
75773;BMP280;64381;0.000;0.000;2024-03-07T09:09:09;95558.56;;;19.36
75773;BMP280;64381;0.000;0.000;2024-03-07T09:11:34;95573.72;;;19.35
75773;BMP280;64381;0.000;0.000;2024-03-07T09:13:59;95558.41;;;19.34
75773;BMP280;64381;0.000;0.000;2024-03-07T09:16:25;95563.19;;;19.33
75773;BMP280;64381;0.000;0.000;2024-03-07T09:18:50;95564.50;;;19.32
75773;BMP280;64381;0.000;0.000;2024-03-07T09:21:15;95559.69;;;19.33
75773;BMP280;64381;0.000;0.000;2024-03-07T09:23:40;95568.72;;;19.33
75773;BMP280;64381;0.000;0.000;2024-03-07T09:26:05;95567.25;;;19.32
75773;BMP280;64381;0.000;0.000;2024-03-07T09:28:31;95567.97;;;19.33
75773;BMP280;64381;0.000;0.000;2024-03-07T09:30:56;95567.06;;;19.30
75773;BMP280;64381;0.000;0.000;2024-03-07T09:33:21;95567.25;;;19.32
75773;BMP280;64381;0.000;0.000;2024-03-07T09:35:46;95568.53;;;19.31
75773;BMP280;64381;0.000;0.000;2024-03-07T09:38:11;95567.25;;;19.32
75773;BMP280;64381;0.000;0.000;2024-03-07T09:40:38;95567.81;;;19.31
75773;BMP280;64381;0.000;0.000;2024-03-07T09:43:03;95567.25;;;19.32
75773;BMP280;64381;0.000;0.000;2024-03-07T09:45:30;95563.00;;;19.31
75773;BMP280;64381;0.000;0.000;2024-03-07T09:47:55;95566.31;;;19.30
75773;BMP280;64381;0.000;0.000;2024-03-07T09:50:21;95563.00;;;19.31
75773;BMP280;64381;0.000;0.000;2024-03-07T09:52:47;95565.03;;;19.31
75773;BMP280;64381;0.000;0.000;2024-03-07T09:55:13;95571.09;;;19.29
75773;BMP280;64381;0.000;0.000;2024-03-07T09:57:38;95561.53;;;19.30
75773;BMP280;64381;0.000;0.000;2024-03-07T10:00:05;95558.22;;;19.32
75773;BMP280;64381;0.000;0.000;2024-03-07T10:02:31;95560.44;;;19.33
75773;BMP280;64381;0.000;0.000;2024-03-07T10:04:57;95559.69;;;19.33
75773;BMP280;64381;0.000;0.000;2024-03-07T10:07:22;95564.69;;;19.34
75773;BMP280;64381;0.000;0.000;2024-03-07T10:09:48;95560.78;;;19.37
75773;BMP280;64381;0.000;0.000;2024-03-07T10:12:14;95560.06;;;19.37
75773;BMP280;64381;0.000;0.000;2024-03-07T10:14:48;95562.25;;;19.38
75773;BMP280;64381;0.000;0.000;2024-03-07T10:17:13;95560.78;;;19.37
75773;BMP280;64381;0.000;0.000;2024-03-07T10:19:40;95564.50;;;19.40
75773;BMP280;64381;0.000;0.000;2024-03-07T10:22:05;95559.69;;;19.40
75773;BMP280;64381;0.000;0.000;2024-03-07T10:24:31;95563.22;;;19.41
75773;BMP280;64381;0.000;0.000;2024-03-07T10:26:56;95549.38;;;19.41
75773;BMP280;64381;0.000;0.000;2024-03-07T10:29:24;95550.81;;;19.42
75773;BMP280;64381;0.000;0.000;2024-03-07T10:31:49;95562.06;;;19.44
75773;BMP280;64381;0.000;0.000;2024-03-07T10:34:15;95559.09;;;19.42
75773;BMP280;64381;0.000;0.000;2024-03-07T10:36:40;95554.53;;;19.44
75773;BMP280;64381;0.000;0.000;2024-03-07T10:39:07;95551.00;;;19.44
75773;BMP280;64381;0.000;0.000;2024-03-07T10:41:35;95559.47;;;19.46
75773;BMP280;64381;0.000;0.000;2024-03-07T10:44:01;95560.06;;;19.44
75773;BMP280;64381;0.000;0.000;2024-03-07T10:46:27;95557.28;;;19.44
75773;BMP280;64381;0.000;0.000;2024-03-07T10:48:55;95555.06;;;19.43
75773;BMP280;64381;0.000;0.000;2024-03-07T10:51:33;95555.81;;;19.43
75773;BMP280;64381;0.000;0.000;2024-03-07T10:54:22;95550.81;;;19.42
75773;BMP280;64381;0.000;0.000;2024-03-07T10:57:09;95552.69;;;19.39
75773;BMP280;64381;0.000;0.000;2024-03-07T10:59:38;95548.44;;;19.38
75773;BMP280;64381;0.000;0.000;2024-03-07T11:02:22;95549.19;;;19.39
75773;BMP280;64381;0.000;0.000;2024-03-07T11:04:50;95543.47;;;19.37
75773;BMP280;64381;0.000;0.000;2024-03-07T11:07:15;95539.38;;;19.38
75773;BMP280;64381;0.000;0.000;2024-03-07T11:09:41;95544.19;;;19.37
75773;BMP280;64381;0.000;0.000;2024-03-07T11:12:08;95543.28;;;19.35
75773;BMP280;64381;0.000;0.000;2024-03-07T11:14:35;95546.06;;;19.35
75773;BMP280;64381;0.000;0.000;2024-03-07T11:17:02;95544.75;;;19.36
75773;BMP280;64381;0.000;0.000;2024-03-07T11:19:29;95539.78;;;19.34
75773;BMP280;64381;0.000;0.000;2024-03-07T11:21:54;95539.22;;;19.36
75773;BMP280;64381;0.000;0.000;2024-03-07T11:24:27;95537.19;;;19.36
75773;BMP280;64381;0.000;0.000;2024-03-07T11:26:53;95530.00;;;19.33
75773;BMP280;64381;0.000;0.000;2024-03-07T11:29:52;95526.69;;;19.35
75773;BMP280;64381;0.000;0.000;2024-03-07T11:32:17;95517.28;;;19.30
75773;BMP280;64381;0.000;0.000;2024-03-07T11:34:43;95518.75;;;19.31
75773;BMP280;64381;0.000;0.000;2024-03-07T11:37:09;95513.22;;;19.31
75773;BMP280;64381;0.000;0.000;2024-03-07T11:39:40;95519.50;;;19.32
75773;BMP280;64381;0.000;0.000;2024-03-07T11:42:06;95508.97;;;19.30
75773;BMP280;64381;0.000;0.000;2024-03-07T11:44:31;95507.69;;;19.31
75773;BMP280;64381;0.000;0.000;2024-03-07T11:46:56;95501.44;;;19.31
75773;BMP280;64381;0.000;0.000;2024-03-07T11:49:23;95497.91;;;19.30
75773;BMP280;64381;0.000;0.000;2024-03-07T11:51:48;95497.19;;;19.30
75773;BMP280;64381;0.000;0.000;2024-03-07T11:54:13;95498.84;;;19.33
75773;BMP280;64381;0.000;0.000;2024-03-07T11:56:38;95494.63;;;19.32
75773;BMP280;64381;0.000;0.000;2024-03-07T11:59:05;95483.16;;;19.35
75773;BMP280;64381;0.000;0.000;2024-03-07T12:01:30;95482.63;;;19.37
75773;BMP280;64381;0.000;0.000;2024-03-07T12:03:55;95468.06;;;19.36
75773;BMP280;64381;0.000;0.000;2024-03-07T12:06:21;95479.28;;;19.38
75773;BMP280;64381;0.000;0.000;2024-03-07T12:08:46;95476.53;;;19.38
75773;BMP280;64381;0.000;0.000;2024-03-07T12:11:11;95467.69;;;19.40
75773;BMP280;64381;0.000;0.000;2024-03-07T12:13:37;95469.88;;;19.41
75773;BMP280;64381;0.000;0.000;2024-03-07T12:16:02;95474.09;;;19.42
75773;BMP280;64381;0.000;0.000;2024-03-07T12:18:28;95476.88;;;19.42
75773;BMP280;64381;0.000;0.000;2024-03-07T12:20:54;95472.81;;;19.43
75773;BMP280;64381;0.000;0.000;2024-03-07T12:23:22;95477.81;;;19.45
75773;BMP280;64381;0.000;0.000;2024-03-07T12:26:01;95470.78;;;19.44
75773;BMP280;64381;0.000;0.000;2024-03-07T12:28:27;95467.28;;;19.43
75773;BMP280;64381;0.000;0.000;2024-03-07T12:30:53;95479.84;;;19.44
75773;BMP280;64381;0.000;0.000;2024-03-07T12:33:20;95466.00;;;19.44
75773;BMP280;64381;0.000;0.000;2024-03-07T12:35:49;95482.78;;;19.46
75773;BMP280;64381;0.000;0.000;2024-03-07T12:38:15;95466.00;;;19.44
75773;BMP280;64381;0.000;0.000;2024-03-07T12:40:41;95456.97;;;19.44
75773;BMP280;64381;0.000;0.000;2024-03-07T12:43:26;95459.19;;;19.45
75773;BMP280;64381;0.000;0.000;2024-03-07T12:45:52;95451.97;;;19.42
75773;BMP280;64381;0.000;0.000;2024-03-07T12:48:18;95454.00;;;19.42
75773;BMP280;64381;0.000;0.000;2024-03-07T12:50:47;95458.81;;;19.41
75773;BMP280;64381;0.000;0.000;2024-03-07T12:53:12;95451.84;;;19.40
75773;BMP280;64381;0.000;0.000;2024-03-07T12:55:39;95452.38;;;19.39
75773;BMP280;64381;0.000;0.000;2024-03-07T12:58:04;95453.13;;;19.39
75773;BMP280;64381;0.000;0.000;2024-03-07T13:00:30;95450.88;;;19.38
75773;BMP280;64381;0.000;0.000;2024-03-07T13:02:55;95441.84;;;19.37
75773;BMP280;64381;0.000;0.000;2024-03-07T13:05:20;95445.94;;;19.36
75773;BMP280;64381;0.000;0.000;2024-03-07T13:07:46;95447.38;;;19.37
75773;BMP280;64381;0.000;0.000;2024-03-07T13:10:11;95442.41;;;19.36
75773;BMP280;64381;0.000;0.000;2024-03-07T13:12:37;95436.88;;;19.36
75773;BMP280;64381;0.000;0.000;2024-03-07T13:15:02;95442.97;;;19.34
75773;BMP280;64381;0.000;0.000;2024-03-07T13:17:27;95440.22;;;19.34
75773;BMP280;64381;0.000;0.000;2024-03-07T13:19:52;95439.47;;;19.34
75773;BMP280;64381;0.000;0.000;2024-03-07T13:22:18;95434.69;;;19.34
75773;BMP280;64381;0.000;0.000;2024-03-07T13:24:43;95435.97;;;19.33
75773;BMP280;64381;0.000;0.000;2024-03-07T13:27:08;95432.28;;;19.31
75773;BMP280;64381;0.000;0.000;2024-03-07T13:29:34;95439.47;;;19.34
75773;BMP280;64381;0.000;0.000;2024-03-07T13:31:59;95440.22;;;19.34
75773;BMP280;64381;0.000;0.000;2024-03-07T13:34:24;95439.66;;;19.36
75773;BMP280;64381;0.000;0.000;2024-03-07T13:36:49;95435.59;;;19.37
75773;BMP280;64381;0.000;0.000;2024-03-07T13:39:14;95439.44;;;19.41
75773;BMP280;64381;0.000;0.000;2024-03-07T13:41:41;95436.84;;;19.43
75773;BMP280;64381;0.000;0.000;2024-03-07T13:44:07;95438.00;;;19.40
75773;BMP280;64381;0.000;0.000;2024-03-07T13:46:33;95436.69;;;19.41
75773;BMP280;64381;0.000;0.000;2024-03-07T13:49:01;95434.09;;;19.43
75773;BMP280;64381;0.000;0.000;2024-03-07T13:51:27;95431.31;;;19.43
75773;BMP280;64381;0.000;0.000;2024-03-07T13:53:52;95432.06;;;19.44
75773;BMP280;64381;0.000;0.000;2024-03-07T13:56:42;95433.56;;;19.45
75773;BMP280;64381;0.000;0.000;2024-03-07T13:59:26;95432.81;;;19.44
75773;BMP280;64381;0.000;0.000;2024-03-07T14:07:18;95434.28;;;19.45
75773;BMP280;64381;0.000;0.000;2024-03-07T14:13:22;95427.44;;;19.46
75773;BMP280;64381;0.000;0.000;2024-03-07T14:22:30;95419.72;;;19.45
75773;BMP280;64381;0.000;0.000;2024-03-07T14:31:16;95417.50;;;19.43
75773;BMP280;64381;0.000;0.000;2024-03-07T14:36:37;95411.41;;;19.45
75773;BMP280;64381;0.000;0.000;2024-03-07T14:39:03;95411.22;;;19.43